Time;durP1;ratioP1;P1;durP2;ratioP2;P2;SDS_P1;SDS_P2;PMS_P1;PMS_P2;Temp;Humidity;BMP_temperature;BMP_pressure;BME280_temperature;BME280_humidity;BME280_pressure;Samples;Min_cycle;Max_cycle;Signal;HPM_P1;HPM_P2
2022/08/22 00:02:43;;;;;;;0.00;0.00;;;;;;;16.53;100.00;101685.91;10537588;28;20427;-77
2022/08/22 00:08:14;;;;;;;0.38;0.15;;;;;;;16.43;100.00;101685.78;10525180;28;20376;-77
2022/08/22 00:13:41;;;;;;;0.27;0.00;;;;;;;16.48;100.00;101678.03;10503037;28;20047;-76
2022/08/22 00:19:06;;;;;;;0.10;0.10;;;;;;;16.28;100.00;101681.25;10538124;28;20286;-77
2022/08/22 00:25:09;;;;;;;0.10;0.10;;;;;;;16.32;100.00;101693.44;10518232;28;20044;-76
2022/08/22 00:30:29;;;;;;;0.00;0.00;;;;;;;16.44;100.00;101687.53;10449577;28;20055;-75
2022/08/22 00:35:36;;;;;;;0.40;0.25;;;;;;;16.12;100.00;101695.72;10505193;28;20056;-75
2022/08/22 00:41:42;;;;;;;0.10;0.10;;;;;;;15.94;100.00;101695.44;10518940;28;20036;-76
2022/08/22 00:46:54;;;;;;;0.20;0.00;;;;;;;16.06;100.00;101685.22;10375185;28;20363;-75
2022/08/22 00:52:24;;;;;;;0.85;0.50;;;;;;;15.95;100.00;101686.81;10495254;28;20106;-76
2022/08/22 00:58:10;;;;;;;0.00;0.00;;;;;;;16.01;100.00;101686.91;10519263;28;20039;-76
2022/08/22 01:03:21;;;;;;;0.08;0.08;;;;;;;15.77;100.00;101703.78;10516917;28;20095;-76
2022/08/22 01:08:55;;;;;;;0.20;0.10;;;;;;;15.75;100.00;101704.63;10531968;28;20463;-76
2022/08/22 01:14:11;;;;;;;0.20;0.17;;;;;;;15.65;100.00;101707.03;10519053;28;20051;-77
2022/08/22 01:19:42;;;;;;;0.10;0.10;;;;;;;15.64;100.00;101707.03;10518090;28;20706;-74
2022/08/22 01:25:19;;;;;;;0.30;0.10;;;;;;;15.58;100.00;101702.59;10516270;28;20056;-78
2022/08/22 01:30:45;;;;;;;0.00;0.00;;;;;;;15.20;100.00;101706.22;10453510;28;20056;-76
2022/08/22 01:35:53;;;;;;;0.20;0.10;;;;;;;15.22;100.00;101714.03;10514560;28;20147;-76
2022/08/22 01:41:34;;;;;;;1.45;1.00;;;;;;;15.30;100.00;101716.81;10535905;28;20120;-76
2022/08/22 01:46:43;;;;;;;0.10;0.10;;;;;;;15.18;100.00;101718.28;10502962;28;20522;-76
2022/08/22 01:51:55;;;;;;;0.32;0.03;;;;;;;14.92;100.00;101717.75;10536585;28;20502;-76
2022/08/22 01:57:02;;;;;;;0.10;0.10;;;;;;;14.99;100.00;101717.03;10518314;28;20093;-76
2022/08/22 02:02:32;;;;;;;0.32;0.20;;;;;;;14.91;100.00;101728.97;10516142;28;20391;-75
2022/08/22 02:08:13;;;;;;;0.03;0.03;;;;;;;14.76;100.00;101734.72;10516677;28;20051;-76
2022/08/22 02:13:28;;;;;;;0.20;0.13;;;;;;;14.97;100.00;101730.84;10513283;28;20054;-79
2022/08/22 02:19:15;;;;;;;0.47;0.10;;;;;;;14.80;100.00;101736.53;10512146;28;20036;-76
2022/08/22 02:24:28;;;;;;;0.00;0.00;;;;;;;14.96;100.00;101742.94;10418193;28;20105;-77
2022/08/22 02:29:41;;;;;;;0.30;0.10;;;;;;;15.05;100.00;101737.06;10522057;28;20060;-76
2022/08/22 02:35:04;;;;;;;0.60;0.35;;;;;;;15.02;100.00;101743.06;10501262;28;20059;-77
2022/08/22 02:40:16;;;;;;;0.10;0.10;;;;;;;15.05;100.00;101716.31;10521816;28;20051;-75
2022/08/22 02:45:43;;;;;;;0.15;0.15;;;;;;;14.88;100.00;101714.22;10519158;28;20044;-78
2022/08/22 02:51:02;;;;;;;0.65;0.52;;;;;;;15.33;100.00;101711.66;10491187;28;20054;-77
2022/08/22 02:56:07;;;;;;;0.00;0.00;;;;;;;15.29;100.00;101715.03;10517212;28;20047;-78
2022/08/22 03:01:28;;;;;;;1.75;0.35;;;;;;;15.35;100.00;101716.03;10517693;28;20143;-75
2022/08/22 03:07:12;;;;;;;0.17;0.17;;;;;;;15.34;100.00;101718.59;10531102;28;20143;-76
2022/08/22 03:12:31;;;;;;;0.00;0.00;;;;;;;15.44;100.00;101707.56;10545475;28;20040;-76
2022/08/22 03:17:55;;;;;;;0.20;0.20;;;;;;;15.31;100.00;101708.13;10542615;28;20106;-78
2022/08/22 03:23:32;;;;;;;0.90;0.28;;;;;;;15.32;100.00;101709.91;10524722;28;20412;-77
2022/08/22 03:28:47;;;;;;;0.20;0.20;;;;;;;15.69;100.00;101705.38;10502862;28;20051;-76
2022/08/22 03:34:21;;;;;;;0.10;0.10;;;;;;;15.74;100.00;101693.38;10549967;28;20086;-74
2022/08/22 03:39:49;;;;;;;0.00;0.00;;;;;;;15.73;100.00;101695.91;10531771;28;20391;-74
2022/08/22 03:45:06;;;;;;;0.10;0.10;;;;;;;15.73;100.00;101686.41;10512218;28;20105;-74
2022/08/22 03:50:45;;;;;;;0.47;0.40;;;;;;;15.63;100.00;101690.59;10530992;28;20050;-74
2022/08/22 03:56:06;;;;;;;3.65;0.82;;;;;;;15.38;100.00;101697.03;10538302;28;20047;-74
2022/08/22 04:01:38;;;;;;;0.17;0.10;;;;;;;15.44;100.00;101681.59;10524120;28;20051;-74
2022/08/22 04:06:58;;;;;;;0.65;0.25;;;;;;;15.54;100.00;101680.88;10519054;28;20454;-74
2022/08/22 04:12:25;;;;;;;0.22;0.20;;;;;;;15.60;100.00;101684.47;10522248;28;20139;-75
2022/08/22 04:17:49;;;;;;;0.30;0.30;;;;;;;15.44;100.00;101683.28;10507764;28;20136;-74
2022/08/22 04:23:13;;;;;;;0.10;0.10;;;;;;;15.39;100.00;101691.00;10536775;28;20052;-74
2022/08/22 04:28:24;;;;;;;0.20;0.15;;;;;;;15.54;100.00;101686.06;10541743;28;20040;-75
2022/08/22 04:33:32;;;;;;;1.15;0.80;;;;;;;15.51;100.00;101677.34;10520803;28;20480;-75
2022/08/22 04:38:46;;;;;;;0.00;0.00;;;;;;;15.59;100.00;101687.91;10541038;28;20085;-74
2022/08/22 04:44:04;;;;;;;0.00;0.00;;;;;;;15.36;100.00;101691.81;10541439;28;20119;-74
2022/08/22 04:49:26;;;;;;;0.47;0.40;;;;;;;15.68;100.00;101680.25;10541201;28;20086;-74
2022/08/22 04:55:03;;;;;;;0.10;0.08;;;;;;;15.49;100.00;101690.31;10523492;28;20441;-74
2022/08/22 05:00:08;;;;;;;0.10;0.10;;;;;;;15.65;100.00;101716.56;10516791;28;20093;-75
2022/08/22 05:05:13;;;;;;;0.52;0.20;;;;;;;15.80;100.00;101711.66;10541437;28;20036;-75
2022/08/22 05:10:20;;;;;;;0.43;0.10;;;;;;;15.66;100.00;101710.53;10506336;28;20055;-74
2022/08/22 05:15:29;;;;;;;0.00;0.00;;;;;;;15.73;100.00;101722.78;10512752;28;20419;-74
2022/08/22 05:20:33;;;;;;;3.90;0.73;;;;;;;15.74;100.00;101723.66;10521837;28;20425;-74
2022/08/22 05:25:40;;;;;;;0.20;0.15;;;;;;;15.94;100.00;101726.63;10522677;28;20035;-74
2022/08/22 05:30:50;;;;;;;0.30;0.17;;;;;;;15.88;100.00;101726.53;10515558;28;20048;-74
2022/08/22 05:36:10;;;;;;;0.00;0.00;;;;;;;15.77;100.00;101750.56;10536496;28;20102;-74
2022/08/22 05:41:19;;;;;;;0.17;0.10;;;;;;;15.66;100.00;101762.50;10539736;28;20126;-75
2022/08/22 05:46:43;;;;;;;0.85;0.63;;;;;;;15.55;100.00;101770.94;10519041;28;20056;-74
2022/08/22 05:52:06;;;;;;;20.20;1.35;;;;;;;15.63;100.00;101767.63;10539216;28;20036;-74
2022/08/22 05:57:29;;;;;;;0.98;0.35;;;;;;;15.78;100.00;101773.09;10520974;28;20047;-75
2022/08/22 06:02:57;;;;;;;0.20;0.20;;;;;;;15.97;100.00;101763.06;10533028;28;20063;-75
2022/08/22 06:08:20;;;;;;;0.63;0.32;;;;;;;16.31;100.00;101767.09;10532072;28;20028;-76
2022/08/22 06:13:51;;;;;;;0.45;0.38;;;;;;;16.51;100.00;101756.13;10538421;28;20047;-77
2022/08/22 06:18:56;;;;;;;0.10;0.10;;;;;;;16.55;100.00;101759.66;10504276;28;20047;-76
2022/08/22 06:24:00;;;;;;;0.30;0.30;;;;;;;16.59;100.00;101753.63;10537767;28;20040;-77
2022/08/22 06:29:07;;;;;;;0.65;0.22;;;;;;;16.94;100.00;101755.91;10521884;28;20093;-75
2022/08/22 06:34:29;;;;;;;1.98;0.50;;;;;;;17.03;100.00;101750.78;10508111;28;20406;-75
2022/08/22 06:39:32;;;;;;;0.13;0.13;;;;;;;17.20;100.00;101740.56;10515614;28;20051;-74
2022/08/22 06:44:42;;;;;;;0.52;0.30;;;;;;;17.25;100.00;101738.03;10514174;28;20429;-75
2022/08/22 06:49:44;;;;;;;0.55;0.30;;;;;;;17.38;100.00;101745.16;10536789;28;20048;-75
2022/08/22 06:54:51;;;;;;;0.17;0.17;;;;;;;17.32;100.00;101747.66;10537549;28;20487;-75
2022/08/22 06:59:55;;;;;;;0.32;0.30;;;;;;;17.78;100.00;101736.84;10517356;28;20126;-75
2022/08/22 07:04:58;;;;;;;0.50;0.20;;;;;;;17.72;100.00;101735.06;10519325;28;20060;-74
2022/08/22 07:10:00;;;;;;;0.32;0.30;;;;;;;17.67;100.00;101739.38;10519211;28;20479;-75
2022/08/22 07:15:18;;;;;;;1.05;0.98;;;;;;;17.73;100.00;101747.25;10519999;28;20517;-74
2022/08/22 07:20:30;;;;;;;0.25;0.20;;;;;;;17.80;100.00;101737.72;10519443;28;20043;-75
2022/08/22 07:25:47;;;;;;;0.57;0.20;;;;;;;17.98;100.00;101734.47;10521381;28;20055;-74
2022/08/22 07:43:28;;;;;;;0.75;0.30;;;;;;;18.20;100.00;101734.63;10537094;28;20040;-75
2022/08/22 07:48:48;;;;;;;0.17;0.13;;;;;;;18.36;100.00;101731.25;10526605;28;20054;-75
2022/08/22 07:54:13;;;;;;;0.40;0.25;;;;;;;18.48;100.00;101727.00;10540219;28;20050;-76
2022/08/22 07:59:18;;;;;;;0.50;0.17;;;;;;;18.58;100.00;101720.94;10522576;28;20052;-75
2022/08/22 08:04:24;;;;;;;0.77;0.77;;;;;;;18.53;100.00;101707.00;10540824;28;20067;-79
2022/08/22 08:09:37;;;;;;;1.58;0.90;;;;;;;18.73;100.00;101707.13;10521298;28;20428;-77
2022/08/22 08:21:32;;;;;;;1.23;0.60;;;;;;;18.88;100.00;101682.81;10539266;28;20421;-75
2022/08/22 08:32:08;;;;;;;;;;;;;;;19.41;100.00;101667.31;10520922;28;20036;-78
2022/08/22 08:37:19;;;;;;;0.45;0.30;;;;;;;19.81;100.00;101660.34;10522427;28;19964;-81
2022/08/22 08:48:40;;;;;;;0.52;0.52;;;;;;;20.23;100.00;101649.88;10539294;28;20517;-81
2022/08/22 08:54:04;;;;;;;0.47;0.30;;;;;;;20.22;100.00;101635.03;10504174;28;20068;-82
2022/08/22 08:59:24;;;;;;;0.57;0.45;;;;;;;19.97;100.00;101627.25;10507541;28;20039;-80
2022/08/22 09:04:32;;;;;;;0.55;0.52;;;;;;;20.59;100.00;101627.06;10537798;28;20085;-81
2022/08/22 09:09:59;;;;;;;0.40;0.30;;;;;;;20.67;100.00;101602.59;10505873;28;20044;-79
2022/08/22 09:21:44;;;;;;;0.60;0.47;;;;;;;22.25;100.00;101585.59;10532643;28;20044;-78
2022/08/22 09:26:51;;;;;;;0.45;0.38;;;;;;;22.11;100.00;101588.41;10519804;28;20442;-75
2022/08/22 09:32:45;;;;;;;0.47;0.40;;;;;;;21.87;100.00;101588.63;10505455;28;20036;-77
2022/08/22 09:38:06;;;;;;;1.20;0.50;;;;;;;22.50;100.00;101579.19;10522004;28;20134;-77
2022/08/22 09:43:29;;;;;;;0.30;0.30;;;;;;;23.25;100.00;101570.25;10489218;28;20048;-75
2022/08/22 09:48:52;;;;;;;0.40;0.40;;;;;;;22.89;100.00;101580.41;10518541;28;20425;-75
2022/08/22 09:54:03;;;;;;;0.30;0.30;;;;;;;23.10;100.00;101576.56;10527108;28;20048;-76
2022/08/22 10:05:36;;;;;;;1.63;0.43;;;;;;;22.77;100.00;101574.44;10527997;28;20067;-75
2022/08/22 10:11:12;;;;;;;1.63;0.68;;;;;;;22.77;100.00;101569.19;10531990;28;20046;-74
2022/08/22 10:16:18;;;;;;;0.90;0.55;;;;;;;23.14;100.00;101552.84;10535765;28;20044;-75
2022/08/22 10:21:39;;;;;;;0.85;0.45;;;;;;;24.30;100.00;101544.63;10515545;28;20077;-76
2022/08/22 10:26:49;;;;;;;0.38;0.30;;;;;;;24.44;100.00;101535.56;10517637;28;20102;-75
2022/08/22 10:32:02;;;;;;;0.57;0.38;;;;;;;24.60;100.00;101518.50;10519108;28;20044;-76
2022/08/22 10:37:24;;;;;;;0.80;0.30;;;;;;;23.38;100.00;101534.97;10527252;28;20834;-76
2022/08/22 10:42:40;;;;;;;0.28;0.28;;;;;;;24.00;100.00;101532.97;10529955;28;20040;-76
2022/08/22 10:47:57;;;;;;;;;;;;;;;23.70;100.00;101523.00;10520769;28;20036;-76
2022/08/22 10:58:39;;;;;;;1.30;1.13;;;;;;;24.78;100.00;101508.47;10519543;28;20071;-77
2022/08/22 11:04:09;;;;;;;0.55;0.40;;;;;;;24.51;100.00;101501.13;10525336;28;20133;-75
2022/08/22 11:09:23;;;;;;;0.52;0.13;;;;;;;24.35;99.65;101498.00;10522188;28;20059;-79
2022/08/22 11:14:37;;;;;;;0.65;0.65;;;;;;;24.78;86.02;101495.28;10522039;28;20048;-76
2022/08/22 11:19:54;;;;;;;0.30;0.17;;;;;;;25.08;94.30;101493.66;10527468;28;20117;-76
2022/08/22 11:25:18;;;;;;;1.25;0.50;;;;;;;25.03;91.45;101491.16;10501918;28;20387;-78
2022/08/22 11:31:05;;;;;;;1.23;0.47;;;;;;;25.13;95.78;101490.91;10527747;28;20052;-75
2022/08/22 11:36:33;;;;;;;1.80;1.40;;;;;;;26.01;65.30;101485.88;10523837;28;20479;-77
2022/08/22 11:41:43;;;;;;;0.20;0.20;;;;;;;26.71;72.03;101475.81;10536414;28;20048;-77
2022/08/22 11:46:56;;;;;;;0.55;0.28;;;;;;;27.59;61.06;101477.28;10514032;28;20040;-77
2022/08/22 11:52:03;;;;;;;0.43;0.30;;;;;;;27.77;72.47;101463.34;10520271;28;20441;-78
2022/08/22 11:57:17;;;;;;;0.20;0.20;;;;;;;26.11;70.60;101474.16;10526215;28;20480;-77
2022/08/22 12:02:52;;;;;;;1.75;0.43;;;;;;;27.14;61.75;101479.72;10509274;28;20055;-77
2022/08/22 12:08:15;;;;;;;0.32;0.32;;;;;;;27.28;59.58;101478.34;10539552;28;20569;-77
2022/08/22 12:13:44;;;;;;;0.90;0.80;;;;;;;27.21;58.02;101481.22;10518803;28;20067;-78
2022/08/22 12:33:13;;;;;;;0.20;0.03;;;;;;;25.71;65.24;101467.38;10538981;28;20044;-81
2022/08/22 12:39:00;;;;;;;0.20;0.20;;;;;;;25.96;67.93;101456.97;10517545;28;20056;-77
2022/08/22 12:44:29;;;;;;;0.03;0.00;;;;;;;26.41;63.58;101454.75;10536076;28;20036;-79
2022/08/22 12:49:40;;;;;;;;;;;;;;;27.24;56.64;101453.78;10538904;28;20040;-76
2022/08/22 12:54:50;;;;;;;0.10;0.10;;;;;;;27.01;55.86;101446.66;10518848;28;20411;-77
2022/08/22 12:59:59;;;;;;;0.00;0.00;;;;;;;26.72;59.90;101445.81;10538746;28;20075;-77
2022/08/22 13:05:20;;;;;;;0.22;0.20;;;;;;;26.20;62.74;101436.03;10537709;28;20039;-78
2022/08/22 13:10:49;;;;;;;0.60;0.30;;;;;;;25.88;59.24;101432.56;10539732;28;20491;-77
2022/08/22 13:15:58;;;;;;;0.93;0.20;;;;;;;26.62;56.11;101431.22;10543531;28;20116;-78
2022/08/22 13:21:05;;;;;;;0.28;0.10;;;;;;;27.03;59.13;101428.97;10536386;28;20051;-81
2022/08/22 13:26:32;;;;;;;0.32;0.20;;;;;;;26.46;58.69;101423.78;10537924;28;20048;-74
2022/08/22 13:31:52;;;;;;;0.30;0.30;;;;;;;27.21;55.28;101411.56;10532336;28;20044;-76
2022/08/22 13:37:02;;;;;;;0.20;0.00;;;;;;;26.83;62.13;101404.09;10538117;28;20511;-75
2022/08/22 13:42:06;;;;;;;0.20;0.20;;;;;;;27.03;56.77;101410.44;10529350;28;20044;-76
2022/08/22 13:47:31;;;;;;;0.20;0.20;;;;;;;27.06;56.23;101403.28;10537517;28;20066;-76
2022/08/22 13:52:46;;;;;;;5.28;1.95;;;;;;;26.71;56.86;101401.81;10537049;28;20040;-75
2022/08/22 13:58:23;;;;;;;0.00;0.00;;;;;;;27.15;52.54;101398.56;10531993;28;20490;-76
2022/08/22 14:03:36;;;;;;;0.17;0.17;;;;;;;26.96;53.25;101404.50;10515855;28;20052;-76
2022/08/22 14:08:41;;;;;;;0.10;0.10;;;;;;;26.86;52.78;101395.19;10533472;28;20043;-76
2022/08/22 14:14:02;;;;;;;0.10;0.10;;;;;;;26.70;50.06;101389.50;10535077;28;20160;-76
2022/08/22 14:19:12;;;;;;;0.10;0.10;;;;;;;27.44;51.47;101389.59;10523992;28;20510;-76
2022/08/22 14:24:25;;;;;;;0.43;0.25;;;;;;;27.74;51.35;101389.34;10529954;28;20480;-76
2022/08/22 14:29:39;;;;;;;0.10;0.10;;;;;;;26.95;55.96;101393.97;10541161;28;20051;-76
2022/08/22 14:34:43;;;;;;;0.00;0.00;;;;;;;27.98;49.22;101387.53;10543171;28;20043;-76
2022/08/22 14:39:57;;;;;;;0.00;0.00;;;;;;;28.11;49.03;101374.66;10539940;28;20056;-76
2022/08/22 14:45:07;;;;;;;2.67;0.73;;;;;;;27.37;57.65;101373.06;10535331;28;20040;-76
2022/08/22 14:50:42;;;;;;;0.47;0.45;;;;;;;26.77;51.74;101375.19;10531637;28;20055;-76
2022/08/22 14:55:55;;;;;;;0.00;0.00;;;;;;;26.67;54.17;101373.78;10529522;28;20311;-75
2022/08/22 15:01:10;;;;;;;0.00;0.00;;;;;;;27.05;57.45;101369.81;10496972;28;20530;-75
2022/08/22 15:06:36;;;;;;;0.25;0.25;;;;;;;26.94;51.77;101365.81;10511167;28;20457;-75
2022/08/22 15:11:38;;;;;;;0.05;0.00;;;;;;;27.02;54.17;101363.75;10530062;28;20048;-75
2022/08/22 15:16:52;;;;;;;1.60;0.30;;;;;;;26.67;51.65;101357.91;10493553;28;20102;-76
2022/08/22 15:22:19;;;;;;;0.10;0.10;;;;;;;26.43;58.63;101361.34;10530588;28;20040;-76
2022/08/22 15:27:23;;;;;;;0.10;0.00;;;;;;;26.60;67.69;101355.50;10512607;28;20484;-75
2022/08/22 15:32:28;;;;;;;0.10;0.10;;;;;;;26.38;58.54;101351.84;10530647;28;20056;-75
2022/08/22 15:37:33;;;;;;;0.00;0.00;;;;;;;26.37;59.75;101347.47;10532578;28;20089;-75
2022/08/22 15:42:40;;;;;;;0.00;0.00;;;;;;;26.36;62.33;101345.75;10496896;28;20058;-75
2022/08/22 15:48:24;;;;;;;0.30;0.20;;;;;;;26.44;59.11;101341.91;10524590;28;20050;-77
2022/08/22 15:53:31;;;;;;;0.00;0.00;;;;;;;26.24;63.04;101339.97;10511861;28;20055;-76
2022/08/22 15:58:39;;;;;;;;;;;;;;;25.96;62.20;101335.53;10507497;28;20506;-76
2022/08/22 16:04:03;;;;;;;0.00;0.00;;;;;;;26.07;62.10;101329.06;10528558;28;20035;-77
2022/08/22 16:09:06;;;;;;;0.22;0.20;;;;;;;25.82;65.42;101327.19;10529144;28;20469;-77
2022/08/22 16:14:43;;;;;;;0.10;0.10;;;;;;;25.81;65.56;101325.47;10536040;28;20047;-76
2022/08/22 16:19:46;;;;;;;0.10;0.10;;;;;;;25.62;68.06;101326.03;10536206;28;20513;-76
2022/08/22 16:24:56;;;;;;;0.00;0.00;;;;;;;25.40;69.71;101327.59;10547248;28;20048;-76
2022/08/22 16:30:03;;;;;;;0.00;0.00;;;;;;;25.41;71.85;101326.69;10529205;28;20537;-76
2022/08/22 16:35:05;;;;;;;0.05;0.00;;;;;;;25.14;80.12;101323.91;10547247;28;20044;-76
2022/08/22 16:40:44;;;;;;;0.00;0.00;;;;;;;25.11;74.48;101324.00;10497960;28;20044;-76
2022/08/22 16:45:49;;;;;;;1.33;0.20;;;;;;;25.17;76.39;101313.28;10508573;28;20055;-76
2022/08/22 16:51:17;;;;;;;0.10;0.10;;;;;;;25.49;75.05;101319.41;10545267;28;20410;-76
2022/08/22 16:57:17;;;;;;;1.40;0.25;;;;;;;25.55;72.10;101321.88;10545084;28;20048;-75
2022/08/22 17:02:58;;;;;;;0.32;0.13;;;;;;;25.55;71.42;101316.59;10528429;28;20048;-75
2022/08/22 17:08:53;;;;;;;0.03;0.03;;;;;;;25.88;73.37;101319.06;10521405;28;20071;-76
2022/08/22 17:14:40;;;;;;;0.20;0.10;;;;;;;25.55;75.18;101316.59;10358227;28;20042;-75
2022/08/22 17:20:09;;;;;;;0.70;0.43;;;;;;;25.45;79.91;101308.09;10390663;28;20400;-75
2022/08/22 17:33:12;;;;;;;0.10;0.10;;;;;;;24.67;72.77;101308.50;10542776;28;20040;-74
2022/08/22 17:39:58;;;;;;;0.45;0.30;;;;;;;24.68;70.65;101311.13;10528798;28;20502;-75
2022/08/22 17:45:52;;;;;;;0.30;0.22;;;;;;;24.63;75.41;101307.69;10537374;28;20043;-75
2022/08/22 17:51:41;;;;;;;0.00;0.00;;;;;;;24.47;77.46;101298.44;10372545;28;20559;-74
2022/08/22 17:58:09;;;;;;;1.55;0.10;;;;;;;24.16;78.02;101307.16;10447797;22;20051;-75
2022/08/22 18:04:53;;;;;;;0.05;0.05;;;;;;;24.15;83.35;101310.69;10583303;28;20042;-75
2022/08/22 18:16:59;;;;;;;0.20;0.20;;;;;;;23.79;86.19;101324.63;10558423;27;20035;-75
2022/08/22 18:22:55;;;;;;;0.00;0.00;;;;;;;23.52;83.51;101320.84;10561401;22;20376;-75
2022/08/22 18:28:50;;;;;;;0.13;0.00;;;;;;;23.25;89.57;101320.53;10521126;28;20044;-74
2022/08/22 18:35:15;;;;;;;0.22;0.00;;;;;;;23.11;94.50;101324.28;10507012;28;20106;-75
2022/08/22 18:41:07;;;;;;;0.20;0.10;;;;;;;22.91;96.13;101329.03;10539541;28;20105;-75
2022/08/22 18:46:44;;;;;;;0.85;0.47;;;;;;;22.66;94.05;101334.75;10539241;28;20077;-75
2022/08/22 19:05:27;;;;;;;2.15;0.35;;;;;;;22.03;100.00;101357.59;10078995;22;20488;-74
2022/08/22 19:11:33;;;;;;;0.10;0.10;;;;;;;21.98;100.00;101362.06;10362322;28;20511;-74
2022/08/22 19:17:45;;;;;;;0.65;0.43;;;;;;;21.96;100.00;101366.44;10393314;28;20594;-75
2022/08/22 19:36:09;;;;;;;0.40;0.30;;;;;;;21.65;100.00;101369.47;10459139;23;20464;-74
2022/08/22 19:41:45;;;;;;;0.10;0.10;;;;;;;21.57;100.00;101372.22;10385495;28;20054;-75
2022/08/22 19:47:41;;;;;;;0.35;0.10;;;;;;;21.40;100.00;101367.16;10381794;28;20053;-75
2022/08/22 20:00:49;;;;;;;0.10;0.10;;;;;;;21.36;100.00;101373.28;10385531;28;20050;-76
2022/08/22 20:06:42;;;;;;;0.82;0.55;;;;;;;21.37;100.00;101383.75;10301698;28;20062;-77
2022/08/22 20:12:49;;;;;;;0.20;0.20;;;;;;;21.36;100.00;101381.16;10302245;28;20054;-75
2022/08/22 20:25:55;;;;;;;0.10;0.03;;;;;;;21.17;100.00;101375.25;10401413;28;20057;-77
2022/08/22 20:31:33;;;;;;;0.40;0.30;;;;;;;21.07;100.00;101379.72;10452399;28;20550;-74
2022/08/22 20:37:36;;;;;;;0.10;0.10;;;;;;;20.95;100.00;101372.84;10467811;28;20083;-76
2022/08/22 20:43:25;;;;;;;0.20;0.13;;;;;;;21.08;100.00;101373.59;10421225;28;20132;-75
2022/08/22 20:54:25;;;;;;;0.22;0.22;;;;;;;20.88;100.00;101377.31;10093285;28;20367;-79
2022/08/22 21:05:45;;;;;;;0.10;0.10;;;;;;;20.76;100.00;101372.16;8772691;28;20078;-75
2022/08/22 21:11:44;;;;;;;0.38;0.10;;;;;;;20.69;100.00;101367.81;10023537;29;20093;-76
2022/08/22 21:17:28;;;;;;;0.28;0.28;;;;;;;20.58;100.00;101371.44;10325872;23;20083;31
2022/08/22 21:22:35;;;;;;;0.20;0.20;;;;;;;20.61;100.00;101368.75;9994582;29;20393;-79
2022/08/22 21:33:24;;;;;;;0.40;0.15;;;;;;;20.67;100.00;101377.44;10291966;23;20050;-74
2022/08/22 21:39:30;;;;;;;1.80;0.32;;;;;;;20.52;100.00;101374.06;10272182;28;20479;-75
2022/08/22 22:05:59;;;;;;;0.52;0.43;;;;;;;20.15;100.00;101376.94;11025972;23;20045;-78
2022/08/22 22:11:06;;;;;;;0.40;0.28;;;;;;;20.25;100.00;101375.16;10020358;29;20810;-79
2022/08/22 22:16:13;;;;;;;0.20;0.20;;;;;;;20.39;100.00;101373.31;10028543;29;20367;-78
2022/08/22 22:21:16;;;;;;;0.03;0.03;;;;;;;20.38;100.00;101370.69;10032460;28;20346;-78
2022/08/22 22:26:20;;;;;;;0.00;0.00;;;;;;;20.34;100.00;101374.22;10026956;29;20836;-78
2022/08/22 22:31:22;;;;;;;1.45;0.63;;;;;;;20.42;100.00;101373.28;10023593;29;20383;-78
2022/08/22 22:36:30;;;;;;;0.20;0.20;;;;;;;20.43;100.00;101372.41;10031532;29;20379;-79
2022/08/22 22:47:43;;;;;;;0.52;0.50;;;;;;;20.03;100.00;101382.25;9992589;29;20890;-78
2022/08/22 22:52:45;;;;;;;0.13;0.10;;;;;;;20.03;100.00;101379.66;10029628;28;20546;-78
2022/08/22 22:57:53;;;;;;;0.08;0.08;;;;;;;19.92;100.00;101380.56;10025517;28;20416;-78
2022/08/22 23:03:03;;;;;;;0.20;0.20;;;;;;;19.76;100.00;101384.97;10025690;29;20377;-77
2022/08/22 23:08:05;;;;;;;0.30;0.20;;;;;;;19.75;100.00;101387.63;10027885;28;20230;-78
2022/08/22 23:13:08;;;;;;;0.30;0.30;;;;;;;19.56;100.00;101379.84;10020784;28;20766;-78
2022/08/22 23:18:15;;;;;;;0.00;0.00;;;;;;;19.68;100.00;101378.06;10034774;28;20511;-77
2022/08/22 23:23:22;;;;;;;0.13;0.13;;;;;;;19.39;100.00;101381.66;10038809;28;20098;-78
2022/08/22 23:28:25;;;;;;;1.08;0.70;;;;;;;19.36;100.00;101384.28;10038297;28;20730;-78
2022/08/22 23:33:36;;;;;;;0.10;0.10;;;;;;;19.43;100.00;101389.50;10054797;28;20453;-78
2022/08/22 23:38:43;;;;;;;1.00;0.65;;;;;;;19.25;100.00;101395.59;10010568;29;20798;-78
2022/08/22 23:43:49;;;;;;;0.17;0.17;;;;;;;19.22;100.00;101397.34;10038936;28;20745;-78
2022/08/22 23:48:57;;;;;;;0.10;0.08;;;;;;;19.09;100.00;101396.53;10034808;29;20440;-77
2022/08/22 23:54:00;;;;;;;0.00;0.00;;;;;;;18.59;100.00;101408.69;10059911;28;20895;-77
2022/08/22 23:59:12;;;;;;;0.70;0.45;;;;;;;18.65;100.00;101399.13;10023089;29;20503;-78
